createdAt,value
2017-04-25T00:00:01.725Z,66.12
2017-04-25T00:01:03.144Z,65.93
2017-04-25T00:02:04.561Z,66.78
2017-04-25T00:03:05.975Z,66.50
2017-04-25T00:04:07.392Z,66.47
2017-04-25T00:05:08.817Z,66.31
2017-04-25T00:06:10.233Z,66.12
2017-04-25T00:07:11.658Z,66.69
2017-04-25T00:08:13.073Z,67.93
2017-04-25T00:09:14.494Z,69.27
2017-04-25T00:10:15.916Z,70.67
2017-04-25T00:11:17.334Z,69.81
2017-04-25T00:12:18.755Z,69.52
2017-04-25T00:13:20.171Z,69.56
2017-04-25T00:14:21.592Z,70.76
2017-04-25T00:15:23.921Z,72.09
2017-04-25T00:16:25.339Z,72.28
2017-04-25T00:17:26.764Z,72.67
2017-04-25T00:18:28.183Z,72.57
2017-04-25T00:19:29.599Z,71.81
2017-04-25T00:20:31.013Z,71.91
2017-04-25T00:21:32.428Z,73.24
2017-04-25T00:22:33.850Z,74.77
2017-04-25T00:23:35.269Z,74.01
2017-04-25T00:24:36.686Z,74.86
2017-04-25T00:25:38.104Z,74.01
2017-04-25T00:26:39.521Z,74.67
2017-04-25T00:27:40.946Z,74.67
2017-04-25T00:28:42.366Z,74.57
2017-04-25T00:29:43.786Z,74.77
2017-04-25T00:30:45.214Z,74.67
2017-04-25T00:31:46.645Z,74.10
2017-04-25T00:32:48.075Z,72.92
2017-04-25T00:33:49.489Z,73.65
2017-04-25T00:34:50.917Z,74.69
2017-04-25T00:35:52.338Z,75.55
2017-04-25T00:36:53.752Z,76.69
2017-04-25T00:37:55.172Z,76.94
2017-04-25T00:38:56.642Z,77.61
2017-04-25T00:39:58.174Z,78.94
2017-04-25T00:40:59.595Z,78.56
2017-04-25T00:42:01.014Z,78.08
2017-04-25T00:43:02.525Z,77.80
2017-04-25T00:44:03.941Z,78.75
2017-04-25T00:45:05.356Z,78.94
2017-04-25T00:46:06.775Z,79.03
2017-04-25T00:47:08.196Z,79.99
2017-04-25T00:48:09.615Z,79.70
2017-04-25T00:49:11.027Z,80.08
2017-04-25T00:50:12.446Z,80.18
2017-04-25T00:51:13.863Z,80.18
2017-04-25T00:52:15.280Z,80.27
2017-04-25T00:53:16.703Z,79.99
2017-04-25T00:54:18.119Z,80.08
2017-04-25T00:55:19.537Z,80.94
2017-04-25T00:56:20.960Z,80.84
2017-04-25T00:57:22.384Z,81.51
2017-04-25T00:58:23.801Z,81.13
2017-04-25T00:59:25.215Z,81.28
2017-04-25T01:00:26.633Z,81.98
2017-04-25T01:01:28.049Z,81.98
2017-04-25T01:02:29.466Z,81.89
2017-04-25T01:03:30.884Z,81.98
2017-04-25T01:04:32.299Z,82.70
2017-04-25T01:05:33.738Z,82.61
2017-04-25T01:06:35.154Z,82.80
2017-04-25T01:07:36.571Z,82.56
2017-04-25T01:08:37.984Z,83.47
2017-04-25T01:09:39.398Z,83.56
2017-04-25T01:10:40.824Z,83.94
2017-04-25T01:11:42.231Z,84.13
2017-04-25T01:12:43.649Z,84.61
2017-04-25T01:13:45.069Z,85.42
2017-04-25T01:14:46.485Z,86.66
2017-04-25T01:15:47.927Z,86.47
2017-04-25T01:16:49.331Z,86.47
2017-04-25T01:17:50.747Z,86.76
2017-04-25T01:18:52.161Z,85.24
2017-04-25T01:19:53.580Z,84.37
2017-04-25T01:20:54.996Z,84.52
2017-04-25T01:21:56.415Z,85.38
2017-04-25T01:22:57.831Z,85.00
2017-04-25T01:23:59.245Z,86.05
2017-04-25T01:25:00.661Z,84.62
2017-04-25T01:26:02.079Z,85.10
2017-04-25T01:27:03.493Z,86.33
2017-04-25T01:28:04.912Z,86.33
2017-04-25T01:29:06.324Z,86.80
2017-04-25T01:30:07.740Z,86.38
2017-04-25T01:31:09.161Z,86.57
2017-04-25T01:32:10.573Z,87.09
2017-04-25T01:33:11.996Z,86.61
2017-04-25T01:34:13.409Z,86.71
2017-04-25T01:35:14.824Z,86.86
2017-04-25T01:36:16.241Z,86.86
2017-04-25T01:37:17.666Z,87.34
2017-04-25T01:38:19.091Z,86.76
2017-04-25T01:39:20.502Z,86.76
2017-04-25T01:40:21.925Z,86.76
2017-04-25T01:41:23.341Z,87.43
2017-04-25T01:42:24.751Z,87.62
2017-04-25T01:43:26.167Z,87.62
2017-04-25T01:44:27.584Z,87.24
2017-04-25T01:45:28.994Z,87.62
2017-04-25T01:46:30.416Z,87.24
2017-04-25T01:47:31.833Z,87.14
2017-04-25T01:48:33.240Z,86.99
2017-04-25T01:49:34.661Z,86.52
2017-04-25T01:50:36.072Z,86.76
2017-04-25T01:51:37.479Z,87.05
2017-04-25T01:52:38.910Z,87.28
2017-04-25T01:53:40.322Z,86.61
2017-04-25T01:54:41.731Z,86.99
2017-04-25T01:55:43.142Z,86.99
2017-04-25T01:56:44.560Z,86.99
2017-04-25T01:57:45.976Z,86.71
2017-04-25T01:58:47.388Z,86.61
2017-04-25T01:59:48.801Z,87.09
2017-04-25T02:00:50.217Z,87.38
2017-04-25T02:01:51.631Z,87.19
2017-04-25T02:02:53.052Z,87.09
2017-04-25T02:03:54.469Z,86.43
2017-04-25T02:04:55.877Z,86.43
2017-04-25T02:05:57.297Z,87.19
2017-04-25T02:06:58.711Z,86.61
2017-04-25T02:08:00.128Z,85.76
2017-04-25T02:09:01.543Z,85.66
2017-04-25T02:10:02.963Z,86.95
2017-04-25T02:11:04.380Z,88.23
2017-04-25T02:12:05.806Z,87.95
2017-04-25T02:13:07.229Z,87.66
2017-04-25T02:14:08.642Z,87.90
2017-04-25T02:15:10.056Z,88.33
2017-04-25T02:16:11.477Z,88.38
2017-04-25T02:17:12.894Z,88.42
2017-04-25T02:18:14.305Z,86.95
2017-04-25T02:19:15.724Z,88.00
2017-04-25T02:20:17.143Z,88.52
2017-04-25T02:21:18.554Z,88.23
2017-04-25T02:22:19.980Z,88.52
2017-04-25T02:23:21.396Z,88.42
2017-04-25T02:24:22.815Z,88.61
2017-04-25T02:25:24.231Z,89.52
2017-04-25T02:26:25.643Z,88.85
2017-04-25T02:27:27.050Z,88.33
2017-04-25T02:28:28.471Z,88.80
2017-04-25T02:29:29.882Z,89.09
2017-04-25T02:30:31.302Z,89.00
2017-04-25T02:31:32.721Z,88.71
2017-04-25T02:32:34.139Z,88.04
2017-04-25T02:33:35.559Z,88.13
2017-04-25T02:34:36.970Z,87.66
2017-04-25T02:35:38.380Z,88.80
2017-04-25T02:36:39.802Z,89.37
2017-04-25T02:37:41.217Z,89.28
2017-04-25T02:38:42.635Z,89.18
2017-04-25T02:39:44.051Z,89.33
2017-04-25T02:40:45.468Z,90.47
2017-04-25T02:41:46.886Z,89.66
2017-04-25T02:42:48.295Z,89.94
2017-04-25T02:43:49.706Z,89.75
2017-04-25T02:44:51.126Z,89.47
2017-04-25T02:45:52.536Z,89.75
2017-04-25T02:46:53.954Z,90.14
2017-04-25T02:47:55.372Z,90.04
2017-04-25T02:48:56.787Z,89.56
2017-04-25T02:49:58.202Z,89.28
2017-04-25T02:50:59.614Z,90.04
2017-04-25T02:52:01.033Z,90.61
2017-04-25T02:53:02.446Z,89.71
2017-04-25T02:54:03.857Z,90.80
2017-04-25T02:55:05.276Z,90.09
2017-04-25T02:56:06.686Z,89.71
2017-04-25T02:57:08.109Z,89.66
2017-04-25T02:58:09.526Z,89.75
2017-04-25T02:59:10.942Z,89.47
2017-04-25T03:00:12.364Z,89.47
2017-04-25T03:01:13.784Z,89.56
2017-04-25T03:02:15.200Z,88.61
2017-04-25T03:03:16.619Z,89.47
2017-04-25T03:04:18.035Z,89.61
2017-04-25T03:05:19.448Z,89.56
2017-04-25T03:06:20.861Z,89.66
2017-04-25T03:07:22.269Z,89.61
2017-04-25T03:08:23.691Z,88.76
2017-04-25T03:09:25.107Z,88.52
2017-04-25T03:10:26.520Z,89.00
2017-04-25T03:11:27.940Z,88.71
2017-04-25T03:12:29.354Z,88.80
2017-04-25T03:13:30.769Z,89.52
2017-04-25T03:14:32.183Z,88.67
2017-04-25T03:15:33.602Z,88.61
2017-04-25T03:16:35.016Z,88.38
2017-04-25T03:17:36.431Z,88.47
2017-04-25T03:18:37.841Z,89.04
2017-04-25T03:19:39.261Z,89.42
2017-04-25T03:20:40.676Z,88.67
2017-04-25T03:21:42.091Z,88.85
2017-04-25T03:22:43.508Z,88.57
2017-04-25T03:23:44.927Z,88.95
2017-04-25T03:24:46.336Z,88.00
2017-04-25T03:25:47.758Z,88.47
2017-04-25T03:26:49.170Z,88.00
2017-04-25T03:27:50.587Z,88.57
2017-04-25T03:28:52.001Z,88.24
2017-04-25T03:29:53.415Z,90.28
2017-04-25T03:30:54.833Z,90.00
2017-04-25T03:31:56.246Z,89.33
2017-04-25T03:32:57.673Z,90.42
2017-04-25T03:33:59.080Z,90.23
2017-04-25T03:35:00.501Z,90.19
2017-04-25T03:36:01.918Z,90.28
2017-04-25T03:37:03.326Z,89.19
2017-04-25T03:38:04.745Z,90.14
2017-04-25T03:39:06.164Z,90.80
2017-04-25T03:40:07.573Z,90.71
2017-04-25T03:41:08.990Z,90.28
2017-04-25T03:42:10.404Z,90.33
2017-04-25T03:43:11.817Z,89.90
2017-04-25T03:44:13.237Z,90.52
2017-04-25T03:45:14.656Z,90.47
2017-04-25T03:46:16.085Z,90.09
2017-04-25T03:47:17.502Z,90.52
2017-04-25T03:48:18.914Z,89.76
2017-04-25T03:49:20.331Z,89.19
2017-04-25T03:50:21.748Z,90.52
2017-04-25T03:51:23.164Z,89.86
2017-04-25T03:52:24.584Z,90.33
2017-04-25T03:53:25.996Z,91.13
2017-04-25T03:54:27.408Z,90.42
2017-04-25T03:55:28.821Z,90.05
2017-04-25T03:56:30.235Z,90.80
2017-04-25T03:57:31.647Z,91.09
2017-04-25T03:58:33.064Z,90.71
2017-04-25T03:59:34.474Z,91.47
2017-04-25T04:00:35.886Z,92.13
2017-04-25T04:01:37.312Z,90.42
2017-04-25T04:02:38.730Z,91.19
2017-04-25T04:03:40.143Z,91.38
2017-04-25T04:04:41.560Z,90.71
2017-04-25T04:05:42.977Z,90.52
2017-04-25T04:06:44.382Z,90.23
2017-04-25T04:07:45.802Z,89.95
2017-04-25T04:08:47.217Z,90.05
2017-04-25T04:09:48.638Z,91.19
2017-04-25T04:10:50.047Z,91.66
2017-04-25T04:11:51.464Z,91.85
2017-04-25T04:12:52.889Z,92.23
2017-04-25T04:13:54.297Z,91.19
2017-04-25T04:14:55.717Z,91.38
2017-04-25T04:15:57.135Z,91.09
2017-04-25T04:16:58.548Z,90.71
2017-04-25T04:17:59.965Z,90.52
2017-04-25T04:19:02.291Z,90.99
2017-04-25T04:20:03.678Z,91.09
2017-04-25T04:21:05.094Z,90.14
2017-04-25T04:22:06.512Z,91.38
2017-04-25T04:23:07.926Z,92.32
2017-04-25T04:24:09.336Z,91.56
2017-04-25T04:25:10.754Z,91.66
2017-04-25T04:26:12.172Z,91.38
2017-04-25T04:27:13.587Z,91.19
2017-04-25T04:28:14.999Z,90.90
2017-04-25T04:29:16.422Z,91.75
2017-04-25T04:30:17.835Z,92.04
2017-04-25T04:31:19.250Z,91.19
2017-04-25T04:32:20.673Z,91.09
2017-04-25T04:33:22.097Z,90.14
2017-04-25T04:34:23.513Z,90.52
2017-04-25T04:35:24.925Z,90.52
2017-04-25T04:36:26.336Z,90.23
2017-04-25T04:37:27.755Z,91.09
2017-04-25T04:38:29.171Z,90.61
2017-04-25T04:39:30.589Z,90.90
2017-04-25T04:40:32.002Z,89.76
2017-04-25T04:41:33.419Z,90.99
2017-04-25T04:42:34.826Z,91.85
2017-04-25T04:43:36.241Z,91.09
2017-04-25T04:44:37.660Z,91.09
2017-04-25T04:45:39.075Z,90.90
2017-04-25T04:46:40.499Z,90.99
2017-04-25T04:47:41.919Z,91.38
2017-04-25T04:48:43.334Z,90.71
2017-04-25T04:49:44.757Z,90.23
2017-04-25T04:50:46.189Z,90.80
2017-04-25T04:51:47.611Z,90.52
2017-04-25T04:52:49.029Z,91.28
2017-04-25T04:53:50.496Z,90.23
2017-04-25T04:54:51.913Z,91.38
2017-04-25T04:55:53.326Z,90.90
2017-04-25T04:56:54.746Z,90.80
2017-04-25T04:57:56.162Z,91.94
2017-04-25T04:58:57.576Z,90.71
2017-04-25T04:59:58.995Z,91.56
2017-04-25T05:01:00.412Z,91.94
2017-04-25T05:02:01.836Z,90.42
2017-04-25T05:03:03.253Z,90.42
2017-04-25T05:04:04.667Z,89.95
2017-04-25T05:05:06.083Z,90.61
2017-04-25T05:06:07.504Z,91.19
2017-04-25T05:07:08.916Z,91.38
2017-04-25T05:08:10.338Z,91.28
2017-04-25T05:09:11.756Z,91.13
2017-04-25T05:10:13.171Z,90.99
2017-04-25T05:11:14.588Z,90.56
2017-04-25T05:12:16.009Z,90.42
2017-04-25T05:13:17.433Z,90.09
2017-04-25T05:14:18.853Z,90.66
2017-04-25T05:15:20.261Z,89.42
2017-04-25T05:16:21.679Z,89.33
2017-04-25T05:17:23.100Z,90.42
2017-04-25T05:18:24.515Z,91.33
2017-04-25T05:19:25.937Z,90.19
2017-04-25T05:20:27.356Z,89.90
2017-04-25T05:21:28.772Z,90.75
2017-04-25T05:22:30.191Z,90.75
2017-04-25T05:23:31.605Z,89.61
2017-04-25T05:24:33.027Z,89.71
2017-04-25T05:25:34.440Z,89.33
2017-04-25T05:26:35.855Z,89.52
2017-04-25T05:27:37.274Z,89.33
2017-04-25T05:28:38.698Z,90.56
2017-04-25T05:29:40.113Z,91.04
2017-04-25T05:30:41.525Z,91.61
2017-04-25T05:31:42.948Z,91.71
2017-04-25T05:32:44.392Z,90.94
2017-04-25T05:33:45.812Z,90.47
2017-04-25T05:34:47.233Z,90.66
2017-04-25T05:35:48.653Z,90.56
2017-04-25T05:36:50.174Z,89.61
2017-04-25T05:37:51.591Z,90.47
2017-04-25T05:38:53.013Z,89.42
2017-04-25T05:39:54.438Z,90.37
2017-04-25T05:40:55.868Z,89.71
2017-04-25T05:41:57.286Z,91.13
2017-04-25T05:42:58.852Z,90.94
2017-04-25T05:44:00.269Z,91.04
2017-04-25T05:45:01.690Z,90.47
2017-04-25T05:46:03.109Z,90.85
2017-04-25T05:47:04.605Z,91.13
2017-04-25T05:48:06.025Z,90.09
2017-04-25T05:49:07.451Z,90.75
2017-04-25T05:50:08.870Z,90.99
2017-04-25T05:51:10.301Z,89.28
2017-04-25T05:52:11.718Z,90.09
2017-04-25T05:53:13.133Z,89.56
2017-04-25T05:54:14.551Z,89.56
2017-04-25T05:55:15.970Z,89.75
2017-04-25T05:56:17.391Z,88.80
2017-04-25T05:57:18.811Z,89.28
2017-04-25T05:58:20.231Z,90.04
2017-04-25T05:59:21.652Z,89.56
2017-04-25T06:00:23.069Z,89.28
2017-04-25T06:01:24.482Z,88.52
2017-04-25T06:02:25.901Z,89.00
2017-04-25T06:03:27.315Z,89.28
2017-04-25T06:04:28.734Z,89.94
2017-04-25T06:05:30.162Z,90.52
2017-04-25T06:06:31.574Z,88.38
2017-04-25T06:07:32.991Z,88.33
2017-04-25T06:08:34.409Z,88.23
2017-04-25T06:09:35.829Z,88.28
2017-04-25T06:10:37.248Z,89.37
2017-04-25T06:11:38.672Z,89.37
2017-04-25T06:12:40.090Z,86.29
2017-04-25T06:13:41.513Z,85.47
2017-04-25T06:14:42.934Z,88.85
2017-04-25T06:15:44.350Z,88.95
2017-04-25T06:16:45.765Z,86.95
2017-04-25T06:17:47.187Z,86.29
2017-04-25T06:18:48.608Z,85.76
2017-04-25T06:19:50.029Z,86.61
2017-04-25T06:20:51.448Z,86.99
2017-04-25T06:21:52.870Z,85.57
2017-04-25T06:22:54.286Z,86.90
2017-04-25T06:23:55.711Z,87.76
2017-04-25T06:24:57.125Z,88.33
2017-04-25T06:25:58.546Z,85.66
2017-04-25T06:26:59.963Z,84.43
2017-04-25T06:28:01.380Z,84.62
2017-04-25T06:29:02.801Z,84.05
2017-04-25T06:30:04.228Z,85.19
2017-04-25T06:31:05.646Z,86.00
2017-04-25T06:32:07.065Z,84.58
2017-04-25T06:33:08.495Z,84.67
2017-04-25T06:34:09.919Z,82.29
2017-04-25T06:35:11.338Z,85.24
2017-04-25T06:36:12.759Z,84.10
2017-04-25T06:37:14.178Z,83.44
2017-04-25T06:38:15.599Z,82.10
2017-04-25T06:39:17.021Z,83.06
2017-04-25T06:40:18.451Z,81.06
2017-04-25T06:41:19.867Z,81.44
2017-04-25T06:42:21.288Z,79.73
2017-04-25T06:43:22.702Z,80.58
2017-04-25T06:44:24.126Z,80.87
2017-04-25T06:45:25.549Z,82.01
2017-04-25T06:46:26.966Z,81.92
2017-04-25T06:47:28.385Z,81.44
2017-04-25T06:48:29.810Z,81.63
2017-04-25T06:49:31.227Z,81.06
2017-04-25T06:50:32.640Z,80.82
2017-04-25T06:51:34.056Z,79.16
2017-04-25T06:52:35.485Z,78.59
2017-04-25T06:53:36.905Z,77.55
2017-04-25T06:54:38.321Z,77.83
2017-04-25T06:55:39.750Z,80.96
2017-04-25T06:56:41.169Z,79.25
2017-04-25T06:57:42.597Z,78.44
2017-04-25T06:58:44.014Z,74.44
2017-04-25T06:59:45.435Z,74.16
2017-04-25T07:00:46.851Z,75.02
2017-04-25T07:01:48.271Z,72.45
2017-04-25T07:02:49.704Z,74.07
2017-04-25T07:03:51.124Z,74.31
2017-04-25T07:04:52.540Z,73.93
2017-04-25T07:05:53.957Z,74.03
2017-04-25T07:06:55.380Z,72.13
2017-04-25T07:07:56.795Z,73.97
2017-04-25T07:08:58.216Z,73.18
2017-04-25T07:09:59.630Z,71.69
2017-04-25T07:11:01.046Z,72.83
2017-04-25T07:12:02.468Z,73.11
2017-04-25T07:13:03.897Z,73.59
2017-04-25T07:14:05.324Z,69.12
2017-04-25T07:15:06.818Z,70.45
2017-04-25T07:16:08.276Z,72.55
2017-04-25T07:17:09.697Z,71.31
2017-04-25T07:18:11.113Z,69.66
2017-04-25T07:19:12.581Z,68.27
2017-04-25T07:20:14.068Z,70.93
2017-04-25T07:21:15.486Z,71.84
2017-04-25T07:22:16.906Z,71.56
2017-04-25T07:23:18.325Z,71.69
2017-04-25T07:24:19.742Z,69.66
2017-04-25T07:25:21.172Z,70.70
2017-04-25T07:26:22.592Z,70.04
2017-04-25T07:27:24.008Z,74.22
2017-04-25T07:28:25.429Z,76.25
2017-04-25T07:29:26.850Z,76.73
2017-04-25T07:30:28.263Z,73.21
2017-04-25T07:31:29.680Z,76.54
2017-04-25T07:32:31.098Z,73.21
2017-04-25T07:33:32.521Z,74.26
2017-04-25T07:34:33.937Z,72.41
2017-04-25T07:35:35.369Z,72.41
2017-04-25T07:36:36.785Z,71.22
2017-04-25T07:37:38.200Z,71.50
2017-04-25T07:38:39.619Z,70.70
2017-04-25T07:39:41.038Z,74.44
2017-04-25T07:40:42.461Z,70.83
2017-04-25T07:41:43.877Z,73.21
2017-04-25T07:42:45.298Z,74.82
2017-04-25T07:43:46.718Z,74.54
2017-04-25T07:44:48.136Z,71.88
2017-04-25T07:45:49.558Z,71.50
2017-04-25T07:46:50.975Z,72.83
2017-04-25T07:47:52.396Z,72.07
2017-04-25T07:48:53.822Z,72.03
2017-04-25T07:49:56.206Z,72.03
2017-04-25T07:50:57.626Z,71.50
2017-04-25T07:51:59.052Z,72.64
2017-04-25T07:53:00.468Z,71.69
2017-04-25T07:54:01.891Z,72.92
2017-04-25T07:55:03.312Z,70.74
2017-04-25T07:56:04.726Z,69.21
2017-04-25T07:57:06.152Z,69.02
2017-04-25T07:58:07.578Z,68.17
2017-04-25T07:59:08.998Z,68.93
2017-04-25T08:00:10.420Z,67.60
2017-04-25T08:01:11.839Z,70.64
2017-04-25T08:02:13.259Z,71.44
2017-04-25T08:03:14.734Z,70.20
2017-04-25T08:04:16.160Z,69.92
2017-04-25T08:05:17.585Z,67.92
2017-04-25T08:06:19.007Z,65.25
2017-04-25T08:07:20.494Z,63.32
2017-04-25T08:08:21.911Z,64.94
2017-04-25T08:09:23.335Z,65.06
2017-04-25T08:10:24.788Z,65.25
2017-04-25T08:11:26.177Z,64.40
2017-04-25T08:12:27.604Z,63.35
2017-04-25T08:13:29.020Z,62.40
2017-04-25T08:14:30.444Z,60.97
2017-04-25T08:15:31.863Z,60.28
2017-04-25T08:16:33.286Z,60.94
2017-04-25T08:17:34.710Z,58.57
2017-04-25T08:18:36.129Z,61.93
2017-04-25T08:19:37.557Z,63.07
2017-04-25T08:20:38.987Z,65.73
2017-04-25T08:21:40.411Z,60.21
2017-04-25T08:22:41.834Z,61.55
2017-04-25T08:23:43.264Z,61.16
2017-04-25T08:24:44.681Z,62.02
2017-04-25T08:25:46.109Z,60.69
2017-04-25T08:26:47.532Z,58.31
2017-04-25T08:27:48.956Z,59.83
2017-04-25T08:28:50.368Z,58.98
2017-04-25T08:29:51.788Z,56.31
2017-04-25T08:30:53.210Z,58.88
2017-04-25T08:31:54.633Z,57.17
2017-04-25T08:32:56.062Z,60.21
2017-04-25T08:33:57.475Z,61.93
2017-04-25T08:34:58.896Z,63.26
2017-04-25T08:36:00.320Z,62.40
2017-04-25T08:37:01.741Z,63.73
2017-04-25T08:38:03.160Z,61.16
2017-04-25T08:39:04.588Z,62.40
2017-04-25T08:40:06.015Z,57.36
2017-04-25T08:41:07.429Z,60.69
2017-04-25T08:42:08.855Z,59.20
2017-04-25T08:43:10.278Z,57.55
2017-04-25T08:44:11.696Z,56.41
2017-04-25T08:45:13.119Z,56.79
2017-04-25T08:46:14.540Z,56.31
2017-04-25T08:47:15.963Z,55.65
2017-04-25T08:48:17.388Z,54.53
2017-04-25T08:49:18.805Z,55.01
2017-04-25T08:50:20.225Z,56.05
2017-04-25T08:51:21.648Z,56.63
2017-04-25T08:52:23.067Z,54.98
2017-04-25T08:53:24.481Z,56.60
2017-04-25T08:54:25.938Z,56.15
2017-04-25T08:55:27.360Z,56.41
2017-04-25T08:56:28.781Z,56.22
2017-04-25T08:57:30.205Z,58.81
2017-04-25T08:58:31.636Z,58.25
2017-04-25T08:59:33.060Z,57.01
2017-04-25T09:00:34.479Z,57.39
2017-04-25T09:01:35.900Z,58.65
2017-04-25T09:02:37.318Z,57.89
2017-04-25T09:03:38.743Z,57.23
2017-04-25T09:04:40.189Z,57.42
2017-04-25T09:05:41.590Z,54.94
2017-04-25T09:06:43.007Z,57.70
2017-04-25T09:07:44.427Z,59.06
2017-04-25T09:08:45.862Z,54.75
2017-04-25T09:09:47.281Z,54.39
2017-04-25T09:10:48.712Z,55.16
2017-04-25T09:11:50.141Z,53.06
2017-04-25T09:12:51.559Z,53.38
2017-04-25T09:13:52.987Z,53.66
2017-04-25T09:14:54.412Z,52.80
2017-04-25T09:15:55.840Z,52.90
2017-04-25T09:16:57.258Z,52.01
2017-04-25T09:17:58.683Z,53.25
2017-04-25T09:19:00.106Z,53.35
2017-04-25T09:20:01.529Z,53.99
2017-04-25T09:21:02.947Z,54.37
2017-04-25T09:22:04.379Z,54.18
2017-04-25T09:23:05.799Z,54.56
2017-04-25T09:24:07.219Z,55.22
2017-04-25T09:25:08.650Z,55.51
2017-04-25T09:26:10.081Z,54.56
2017-04-25T09:27:11.503Z,52.68
2017-04-25T09:28:12.935Z,54.59
2017-04-25T09:29:14.354Z,55.73
2017-04-25T09:30:15.781Z,54.78
2017-04-25T09:31:17.199Z,55.61
2017-04-25T09:32:18.623Z,54.75
2017-04-25T09:33:20.053Z,53.06
2017-04-25T09:34:21.471Z,52.56
2017-04-25T09:35:22.899Z,53.13
2017-04-25T09:36:24.318Z,54.66
2017-04-25T09:37:25.739Z,53.89
2017-04-25T09:38:27.161Z,53.89
2017-04-25T09:39:28.583Z,55.73
2017-04-25T09:40:30.003Z,57.42
2017-04-25T09:41:31.434Z,53.61
2017-04-25T09:42:32.870Z,51.04
2017-04-25T09:43:34.297Z,50.85
2017-04-25T09:44:35.718Z,53.32
2017-04-25T09:45:37.142Z,52.59
2017-04-25T09:46:38.563Z,52.20
2017-04-25T09:47:39.988Z,48.68
2017-04-25T09:48:41.412Z,50.97
2017-04-25T09:49:42.832Z,52.71
2017-04-25T09:50:44.259Z,50.71
2017-04-25T09:51:45.694Z,49.66
2017-04-25T09:52:47.112Z,51.64
2017-04-25T09:53:48.530Z,52.04
2017-04-25T09:54:49.959Z,49.82
2017-04-25T09:55:51.385Z,50.52
2017-04-25T09:56:52.818Z,48.30
2017-04-25T09:57:54.246Z,50.49
2017-04-25T09:58:55.673Z,48.78
2017-04-25T09:59:57.097Z,50.97
2017-04-25T10:00:58.524Z,50.59
2017-04-25T10:01:59.937Z,50.40
2017-04-25T10:03:01.360Z,51.73
2017-04-25T10:04:02.783Z,49.92
2017-04-25T10:05:04.213Z,51.45
2017-04-25T10:06:05.637Z,53.00
2017-04-25T10:07:07.063Z,51.25
2017-04-25T10:08:08.490Z,50.59
2017-04-25T10:09:09.910Z,50.42
2017-04-25T10:10:11.333Z,47.85
2017-04-25T10:11:12.761Z,49.37
2017-04-25T10:12:14.182Z,50.61
2017-04-25T10:13:15.602Z,49.76
2017-04-25T10:14:17.024Z,48.07
2017-04-25T10:15:18.445Z,47.75
2017-04-25T10:16:19.869Z,49.68
2017-04-25T10:17:21.302Z,47.18
2017-04-25T10:18:22.726Z,45.94
2017-04-25T10:19:24.143Z,47.97
2017-04-25T10:20:25.568Z,47.97
2017-04-25T10:21:26.993Z,46.32
2017-04-25T10:22:28.416Z,46.42
2017-04-25T10:23:29.835Z,46.61
2017-04-25T10:24:31.261Z,47.08
2017-04-25T10:25:32.706Z,47.18
2017-04-25T10:26:34.108Z,46.23
2017-04-25T10:27:35.531Z,46.04
2017-04-25T10:28:36.957Z,49.66
2017-04-25T10:29:38.377Z,51.47
2017-04-25T10:30:39.802Z,49.18
2017-04-25T10:31:41.233Z,49.73
2017-04-25T10:32:42.653Z,47.82
2017-04-25T10:33:44.080Z,47.82
2017-04-25T10:34:45.501Z,48.11
2017-04-25T10:35:46.923Z,49.73
2017-04-25T10:36:48.405Z,49.63
2017-04-25T10:37:49.835Z,48.90
2017-04-25T10:38:51.254Z,50.90
2017-04-25T10:39:52.712Z,48.13
2017-04-25T10:40:54.135Z,47.85
2017-04-25T10:41:55.567Z,48.61
2017-04-25T10:42:56.989Z,46.99
2017-04-25T10:43:58.476Z,46.89
2017-04-25T10:44:59.899Z,48.04
2017-04-25T10:46:01.317Z,49.56
2017-04-25T10:47:02.839Z,50.01
2017-04-25T10:48:04.314Z,50.80
2017-04-25T10:49:05.732Z,50.52
2017-04-25T10:50:07.160Z,49.76
2017-04-25T10:51:08.668Z,49.49
2017-04-25T10:52:10.099Z,49.78
2017-04-25T10:53:11.533Z,49.68
2017-04-25T10:54:12.951Z,47.11
2017-04-25T10:55:14.372Z,49.78
2017-04-25T10:56:15.798Z,51.88
2017-04-25T10:57:17.219Z,50.42
2017-04-25T10:58:18.712Z,47.82
2017-04-25T10:59:20.144Z,49.44
2017-04-25T11:00:21.567Z,50.27
2017-04-25T11:01:22.992Z,51.14
2017-04-25T11:02:24.418Z,51.80
2017-04-25T11:03:25.842Z,51.99
2017-04-25T11:04:27.267Z,53.04
2017-04-25T11:05:28.684Z,53.61
2017-04-25T11:06:30.111Z,53.61
2017-04-25T11:07:31.534Z,53.13
2017-04-25T11:08:32.968Z,53.39
2017-04-25T11:09:34.390Z,54.25
2017-04-25T11:10:35.814Z,52.53
2017-04-25T11:11:37.237Z,52.84
2017-04-25T11:12:38.655Z,52.72
2017-04-25T11:13:40.075Z,54.06
2017-04-25T11:14:41.502Z,54.63
2017-04-25T11:15:42.920Z,57.77
2017-04-25T11:16:44.337Z,56.05
2017-04-25T11:17:45.759Z,56.05
2017-04-25T11:18:47.193Z,55.39
2017-04-25T11:19:48.605Z,56.92
2017-04-25T11:20:50.027Z,57.39
2017-04-25T11:21:51.446Z,58.72
2017-04-25T11:22:52.865Z,57.48
2017-04-25T11:23:54.279Z,59.20
2017-04-25T11:24:55.697Z,60.63
2017-04-25T11:25:57.119Z,60.24
2017-04-25T11:26:58.538Z,59.58
2017-04-25T11:27:59.961Z,57.60
2017-04-25T11:29:01.379Z,59.26
2017-04-25T11:30:02.805Z,60.02
2017-04-25T11:31:04.253Z,56.24
2017-04-25T11:32:05.663Z,56.14
2017-04-25T11:33:07.080Z,56.17
2017-04-25T11:34:08.505Z,55.09
2017-04-25T11:35:09.928Z,54.64
2017-04-25T11:36:11.354Z,55.05
2017-04-25T11:37:12.784Z,52.86
2017-04-25T11:38:14.212Z,53.05
2017-04-25T11:39:15.639Z,52.86
2017-04-25T11:40:17.067Z,54.03
2017-04-25T11:41:18.481Z,52.22
2017-04-25T11:42:19.904Z,52.31
2017-04-25T11:43:21.321Z,50.59
2017-04-25T11:44:22.752Z,50.85
2017-04-25T11:45:24.182Z,52.22
2017-04-25T11:46:25.608Z,51.93
2017-04-25T11:47:27.031Z,50.62
2017-04-25T11:48:28.483Z,50.04
2017-04-25T11:49:29.919Z,49.66
2017-04-25T11:50:31.350Z,49.69
2017-04-25T11:51:32.776Z,47.78
2017-04-25T11:52:34.204Z,46.44
2017-04-25T11:53:35.627Z,47.11
2017-04-25T11:54:37.043Z,44.62
2017-04-25T11:55:38.465Z,43.98
2017-04-25T11:56:39.887Z,46.63
2017-04-25T11:57:41.315Z,45.92
2017-04-25T11:58:42.745Z,46.54
2017-04-25T11:59:44.178Z,49.02
2017-04-25T12:00:45.595Z,51.47
2017-04-25T12:01:47.016Z,55.10
2017-04-25T12:02:48.445Z,60.31
2017-04-25T12:03:49.871Z,62.97
2017-04-25T12:04:51.288Z,66.55
2017-04-25T12:05:52.704Z,70.61
2017-04-25T12:06:54.130Z,76.27
2017-04-25T12:07:55.549Z,82.50
2017-04-25T12:08:56.970Z,83.12
2017-04-25T12:09:58.389Z,85.49
2017-04-25T12:10:59.809Z,87.30
2017-04-25T12:12:01.234Z,87.58
2017-04-25T12:13:02.645Z,87.05
2017-04-25T12:14:04.073Z,86.68
2017-04-25T12:15:05.498Z,86.68
2017-04-25T12:16:06.913Z,86.30
2017-04-25T12:17:08.331Z,85.63
2017-04-25T12:18:09.773Z,87.72
2017-04-25T12:19:11.180Z,89.14
2017-04-25T12:20:12.599Z,87.91
2017-04-25T12:21:14.014Z,86.39
2017-04-25T12:22:15.432Z,86.68
2017-04-25T12:23:16.849Z,86.20
2017-04-25T12:24:18.276Z,86.68
2017-04-25T12:25:19.695Z,86.91
2017-04-25T12:26:21.113Z,86.24
2017-04-25T12:27:22.531Z,85.20
2017-04-25T12:28:23.949Z,84.82
2017-04-25T12:29:25.382Z,84.48
2017-04-25T12:30:26.809Z,84.77
2017-04-25T12:31:28.232Z,82.43
2017-04-25T12:32:29.649Z,82.53
2017-04-25T12:33:31.075Z,81.38
2017-04-25T12:34:32.502Z,83.10
2017-04-25T12:35:33.934Z,83.52
2017-04-25T12:36:35.347Z,81.05
2017-04-25T12:37:36.879Z,81.05
2017-04-25T12:38:38.342Z,82.51
2017-04-25T12:39:39.759Z,81.28
2017-04-25T12:40:41.178Z,80.61
2017-04-25T12:41:42.637Z,82.56
2017-04-25T12:42:44.070Z,80.46
2017-04-25T12:43:45.486Z,81.03
2017-04-25T12:44:48.440Z,80.65
2017-04-25T12:45:49.862Z,79.60
2017-04-25T12:46:51.278Z,78.88
2017-04-25T12:47:52.698Z,74.60
2017-04-25T12:48:54.128Z,75.26
2017-04-25T12:49:55.551Z,74.63
2017-04-25T12:50:56.976Z,75.20
2017-04-25T12:51:58.407Z,75.96
2017-04-25T12:52:59.828Z,76.39
2017-04-25T12:54:01.252Z,73.62
2017-04-25T12:55:02.670Z,73.21
2017-04-25T12:56:04.093Z,74.63
2017-04-25T12:57:05.515Z,78.10
2017-04-25T12:58:06.947Z,74.48
2017-04-25T12:59:08.370Z,67.33
2017-04-25T13:00:09.792Z,69.87
2017-04-25T13:01:11.214Z,71.23
2017-04-25T13:02:12.639Z,73.28
2017-04-25T13:03:14.061Z,69.93
2017-04-25T13:04:15.489Z,67.71
2017-04-25T13:05:16.915Z,68.98
2017-04-25T13:06:18.339Z,67.55
2017-04-25T13:07:19.763Z,70.79
2017-04-25T13:08:21.184Z,69.27
2017-04-25T13:09:22.614Z,70.38
2017-04-25T13:10:24.041Z,69.29